createdAt,value
2019-01-24T00:01:19.243Z,99469.90
2019-01-24T00:03:46.714Z,99481.91
2019-01-24T00:06:14.735Z,99476.23
2019-01-24T00:08:42.139Z,99487.81
2019-01-24T00:11:09.643Z,99484.91
2019-01-24T00:13:37.078Z,99487.93
2019-01-24T00:16:04.924Z,99495.43
2019-01-24T00:18:32.497Z,99494.94
2019-01-24T00:20:59.997Z,99496.23
2019-01-24T00:23:27.509Z,99496.23
2019-01-24T00:25:54.929Z,99499.50
2019-01-24T00:28:22.429Z,99527.16
2019-01-24T00:30:49.859Z,99513.73
2019-01-24T00:33:17.319Z,99504.64
2019-01-24T00:35:44.773Z,99516.58
2019-01-24T00:38:12.263Z,99514.47
2019-01-24T00:40:39.833Z,99521.02
2019-01-24T00:43:07.499Z,99517.32
2019-01-24T00:45:34.962Z,99517.32
2019-01-24T00:48:02.445Z,99525.79
2019-01-24T00:50:29.833Z,99551.30
2019-01-24T00:52:57.298Z,99531.97
2019-01-24T00:55:24.757Z,99532.04
2019-01-24T00:57:52.239Z,99529.59
2019-01-24T01:00:22.637Z,99529.55
2019-01-24T01:02:50.253Z,99537.05
2019-01-24T01:05:17.939Z,99535.48
2019-01-24T01:07:45.620Z,99546.44
2019-01-24T01:10:13.176Z,99546.44
2019-01-24T01:12:40.756Z,99547.07
2019-01-24T01:15:11.118Z,99547.07
2019-01-24T01:17:38.603Z,99556.92
2019-01-24T01:20:08.363Z,99556.92
2019-01-24T01:22:35.899Z,99558.97
2019-01-24T01:25:05.134Z,99558.97
2019-01-24T01:27:32.583Z,99567.80
2019-01-24T01:30:00.038Z,99567.80
2019-01-24T01:32:27.468Z,99573.31
2019-01-24T01:34:54.956Z,99573.31
2019-01-24T01:37:22.412Z,99565.28
2019-01-24T01:39:49.898Z,99570.92
2019-01-24T01:42:17.504Z,99570.92
2019-01-24T01:44:44.985Z,99572.44
2019-01-24T01:47:14.623Z,99569.11
2019-01-24T01:49:42.128Z,99588.04
2019-01-24T01:52:09.558Z,99586.77
2019-01-24T01:54:37.062Z,99584.33
2019-01-24T01:57:04.688Z,99584.33
2019-01-24T01:59:32.189Z,99583.09
2019-01-24T02:01:59.599Z,99583.09
2019-01-24T02:04:27.073Z,99583.67
2019-01-24T02:06:54.574Z,99565.27
2019-01-24T02:09:22.043Z,99583.75
2019-01-24T02:11:51.983Z,99583.67
2019-01-24T02:14:19.468Z,99583.67
2019-01-24T02:16:46.889Z,99584.41
2019-01-24T02:19:14.338Z,99591.80
2019-01-24T02:21:41.779Z,99588.05
2019-01-24T02:24:09.253Z,99593.12
2019-01-24T02:26:36.673Z,99602.75
2019-01-24T02:29:04.195Z,99605.47
2019-01-24T02:31:31.614Z,99617.70
2019-01-24T02:33:59.091Z,99615.53
2019-01-24T02:36:26.463Z,99608.44
2019-01-24T02:38:53.964Z,99612.86
2019-01-24T02:41:21.367Z,99620.48
2019-01-24T02:43:48.835Z,99621.59
2019-01-24T02:46:16.279Z,99621.20
2019-01-24T02:48:43.763Z,99620.19
2019-01-24T02:51:11.178Z,99621.78
2019-01-24T02:53:38.680Z,99623.02
2019-01-24T02:56:06.124Z,99625.38
2019-01-24T02:58:33.513Z,99623.12
2019-01-24T03:01:00.961Z,99628.45
2019-01-24T03:03:28.434Z,99627.30
2019-01-24T03:05:55.938Z,99627.69
2019-01-24T03:08:23.428Z,99630.64
2019-01-24T03:10:50.903Z,99625.68
2019-01-24T03:13:18.322Z,99625.68
2019-01-24T03:15:45.838Z,99626.06
2019-01-24T03:18:13.369Z,99628.27
2019-01-24T03:20:40.895Z,99632.58
2019-01-24T03:23:08.393Z,99633.36
2019-01-24T03:25:35.863Z,99626.43
2019-01-24T03:28:03.513Z,99633.85
2019-01-24T03:30:30.987Z,99624.34
2019-01-24T03:32:58.371Z,99623.48
2019-01-24T03:35:26.378Z,99629.67
2019-01-24T03:37:53.924Z,99610.54
2019-01-24T03:40:23.558Z,99623.55
2019-01-24T03:42:51.018Z,99620.00
2019-01-24T03:45:18.623Z,99622.20
2019-01-24T03:47:46.339Z,99633.88
2019-01-24T03:50:18.160Z,99620.90
2019-01-24T03:52:45.683Z,99633.41
2019-01-24T03:55:15.914Z,99626.34
2019-01-24T03:57:43.308Z,99627.72
2019-01-24T04:00:16.545Z,99629.03
2019-01-24T04:02:44.073Z,99629.03
2019-01-24T04:05:12.265Z,99635.52
2019-01-24T04:07:39.776Z,99633.94
2019-01-24T04:10:09.868Z,99637.90
2019-01-24T04:12:39.540Z,99632.45
2019-01-24T04:15:08.888Z,99641.67
2019-01-24T04:17:36.362Z,99636.89
2019-01-24T04:20:05.029Z,99641.65
2019-01-24T04:22:32.468Z,99641.45
2019-01-24T04:24:59.948Z,99640.55
2019-01-24T04:27:27.354Z,99637.24
2019-01-24T04:29:54.780Z,99637.24
2019-01-24T04:32:22.262Z,99639.24
2019-01-24T04:34:49.683Z,99650.77
2019-01-24T04:37:17.188Z,99644.22
2019-01-24T04:39:44.563Z,99657.17
2019-01-24T04:42:12.029Z,99661.09
2019-01-24T04:44:39.413Z,99654.88
2019-01-24T04:47:06.899Z,99660.11
2019-01-24T04:49:34.353Z,99648.83
2019-01-24T04:52:01.838Z,99648.83
2019-01-24T04:54:29.258Z,99655.97
2019-01-24T04:56:56.753Z,99657.64
2019-01-24T04:59:24.164Z,99655.83
2019-01-24T05:01:51.643Z,99658.11
2019-01-24T05:04:19.115Z,99660.59
2019-01-24T05:06:46.675Z,99656.53
2019-01-24T05:09:14.081Z,99660.59
2019-01-24T05:11:41.541Z,99666.52
2019-01-24T05:14:08.933Z,99671.90
2019-01-24T05:16:36.383Z,99675.31
2019-01-24T05:19:03.970Z,99674.95
2019-01-24T05:21:31.419Z,99683.50
2019-01-24T05:23:58.873Z,99687.64
2019-01-24T05:26:26.335Z,99679.50
2019-01-24T05:28:53.764Z,99675.59
2019-01-24T05:31:21.285Z,99684.36
2019-01-24T05:33:48.728Z,99673.45
2019-01-24T05:36:16.219Z,99691.02
2019-01-24T05:38:43.643Z,99696.52
2019-01-24T05:41:11.154Z,99700.81
2019-01-24T05:43:38.583Z,99696.13
2019-01-24T05:46:06.038Z,99696.13
2019-01-24T05:48:39.489Z,99696.02
2019-01-24T05:51:06.959Z,99703.34
2019-01-24T05:53:34.399Z,99701.79
2019-01-24T05:56:03.020Z,99719.13
2019-01-24T05:58:30.423Z,99717.73
2019-01-24T06:00:57.907Z,99719.82
2019-01-24T06:03:25.312Z,99716.37
2019-01-24T06:05:52.758Z,99717.28
2019-01-24T06:08:20.204Z,99722.49
2019-01-24T06:10:47.678Z,99721.46
2019-01-24T06:13:17.698Z,99734.45
2019-01-24T06:15:45.277Z,99738.58
2019-01-24T06:18:12.673Z,99745.42
2019-01-24T06:20:40.129Z,99741.39
2019-01-24T06:23:17.607Z,99742.17
2019-01-24T06:25:45.098Z,99750.83
2019-01-24T06:28:18.786Z,99749.57
2019-01-24T06:30:46.421Z,99747.91
2019-01-24T06:37:47.081Z,99752.49
2019-01-24T06:41:33.782Z,99753.05
2019-01-24T06:45:07.532Z,99754.47
2019-01-24T06:48:05.140Z,99754.39
2019-01-24T06:58:50.617Z,99754.20
2019-01-24T07:06:24.812Z,99747.52
2019-01-24T07:09:47.307Z,99761.04
2019-01-24T07:13:32.467Z,99764.83
2019-01-24T07:16:42.613Z,99772.87
2019-01-24T07:20:00.503Z,99772.87
2019-01-24T07:23:32.091Z,99779.07
2019-01-24T07:30:40.342Z,99797.87
2019-01-24T07:34:17.721Z,99800.74
2019-01-24T07:37:46.842Z,99801.30
2019-01-24T07:40:45.118Z,99805.04
2019-01-24T07:43:36.363Z,99809.27
2019-01-24T07:46:29.057Z,99815.14
2019-01-24T07:49:23.847Z,99822.36
2019-01-24T07:52:11.507Z,99827.72
2019-01-24T07:55:14.421Z,99837.62
2019-01-24T07:57:37.671Z,99833.72
2019-01-24T08:00:55.692Z,99823.84
2019-01-24T08:04:09.553Z,99826.09
2019-01-24T08:07:14.030Z,99826.09
2019-01-24T08:09:54.647Z,99834.09
2019-01-24T08:12:45.143Z,99846.87
2019-01-24T08:16:00.470Z,99847.11
2019-01-24T08:19:13.692Z,99849.22
2019-01-24T08:25:52.972Z,99851.52
2019-01-24T08:29:00.943Z,99852.29
2019-01-24T08:31:40.437Z,99856.42
2019-01-24T08:34:24.915Z,99859.88
2019-01-24T08:37:21.193Z,99865.34
2019-01-24T08:40:18.292Z,99864.28
2019-01-24T08:46:38.058Z,99874.88
2019-01-24T08:49:56.984Z,99879.81
2019-01-24T08:58:09.577Z,99885.77
2019-01-24T09:03:31.813Z,99876.91
2019-01-24T09:13:24.892Z,99893.67
2019-01-24T09:16:09.237Z,99890.08
2019-01-24T09:19:06.562Z,99893.82
2019-01-24T09:26:15.818Z,99900.46
2019-01-24T09:29:05.337Z,99896.84
2019-01-24T09:32:07.061Z,99897.34
2019-01-24T09:34:50.153Z,99892.95
2019-01-24T09:37:26.012Z,99892.95
2019-01-24T09:40:04.080Z,99889.44
2019-01-24T09:42:47.180Z,99888.97
2019-01-24T09:45:46.864Z,99893.63
2019-01-24T09:55:39.984Z,99899.33
2019-01-24T09:58:46.017Z,99907.09
2019-01-24T10:01:31.853Z,99900.71
2019-01-24T10:04:19.919Z,99908.52
2019-01-24T10:07:17.952Z,99913.17
2019-01-24T10:17:40.862Z,99914.27
2019-01-24T10:24:29.038Z,99915.48
2019-01-24T10:27:50.387Z,99904.92
2019-01-24T10:40:03.473Z,99904.28
2019-01-24T10:43:11.966Z,99907.95
2019-01-24T10:50:29.442Z,99899.29
2019-01-24T10:53:43.140Z,99904.59
2019-01-24T10:57:21.114Z,99919.61
2019-01-24T11:00:34.183Z,99913.81
2019-01-24T11:07:51.074Z,99912.34
2019-01-24T11:15:29.302Z,99891.47
2019-01-24T11:18:53.798Z,99886.33
2019-01-24T11:27:56.306Z,99893.48
2019-01-24T11:34:10.517Z,99884.07
2019-01-24T11:37:16.123Z,99884.77
2019-01-24T11:40:39.042Z,99882.79
2019-01-24T11:44:58.812Z,99885.27
2019-01-24T11:48:49.829Z,99881.46
2019-01-24T11:59:29.359Z,99876.55
2019-01-24T12:03:00.258Z,99860.90
2019-01-24T12:06:16.305Z,99867.52
2019-01-24T12:14:01.017Z,99872.20
2019-01-24T12:18:05.990Z,99864.94
2019-01-24T12:20:58.013Z,99858.42
2019-01-24T12:23:58.456Z,99855.95
2019-01-24T12:30:59.593Z,99849.05
2019-01-24T12:46:00.322Z,99846.10
2019-01-24T12:49:05.614Z,99848.36
2019-01-24T12:54:39.792Z,99865.00
2019-01-24T12:57:11.202Z,99854.17
2019-01-24T13:00:32.586Z,99861.78
2019-01-24T13:03:18.861Z,99860.98
2019-01-24T13:10:16.538Z,99847.63
2019-01-24T13:13:31.144Z,99865.02
2019-01-24T13:17:00.394Z,99866.45
2019-01-24T13:20:03.793Z,99866.80
2019-01-24T13:23:18.036Z,99885.40
2019-01-24T13:26:14.017Z,99882.05
2019-01-24T13:29:17.204Z,99873.50
2019-01-24T13:32:20.140Z,99865.01
2019-01-24T13:35:32.227Z,99873.02
2019-01-24T13:39:09.613Z,99878.54
2019-01-24T13:45:53.569Z,99874.98
2019-01-24T13:48:46.253Z,99877.70
2019-01-24T13:51:43.262Z,99881.89
2019-01-24T13:57:59.145Z,99889.16
2019-01-24T14:04:30.191Z,99869.91
2019-01-24T14:07:45.581Z,99862.83
2019-01-24T14:10:47.711Z,99866.31
2019-01-24T14:13:43.251Z,99862.12
2019-01-24T14:19:49.672Z,99856.81
2019-01-24T14:22:52.452Z,99860.67
2019-01-24T14:25:59.784Z,99870.85
2019-01-24T14:28:46.577Z,99871.80
2019-01-24T14:31:34.508Z,99875.20
2019-01-24T14:41:14.333Z,99887.64
2019-01-24T14:44:15.252Z,99895.14
2019-01-24T14:47:04.652Z,99906.44
2019-01-24T14:50:07.358Z,99900.36
2019-01-24T14:53:29.396Z,99898.12
2019-01-24T14:56:12.973Z,99901.10
2019-01-24T14:59:22.897Z,99915.11
2019-01-24T15:02:28.641Z,99916.55
2019-01-24T15:05:09.127Z,99922.80
2019-01-24T15:08:14.814Z,99931.83
2019-01-24T15:11:26.257Z,99940.23
2019-01-24T15:19:14.315Z,99947.95
2019-01-24T15:25:27.497Z,99944.99
2019-01-24T15:29:14.047Z,99950.92
2019-01-24T15:51:15.826Z,99966.52
2019-01-24T15:53:54.244Z,99970.42
2019-01-24T15:56:45.725Z,99976.11
2019-01-24T15:59:29.232Z,99979.32
2019-01-24T16:02:18.767Z,99980.64
2019-01-24T16:05:37.638Z,99983.89
2019-01-24T16:13:01.221Z,99990.05
2019-01-24T16:15:39.792Z,99987.33
2019-01-24T16:18:23.986Z,99997.86
2019-01-24T16:20:52.072Z,100001.10
2019-01-24T16:23:22.202Z,100010.38
2019-01-24T16:25:50.526Z,100014.56
2019-01-24T16:28:28.690Z,100014.05
2019-01-24T16:31:11.956Z,100023.94
2019-01-24T16:34:25.545Z,100015.43
2019-01-24T17:03:58.322Z,100031.03
2019-01-24T17:06:38.903Z,100037.98
2019-01-24T17:09:22.188Z,100039.12
2019-01-24T17:12:01.285Z,100052.73
2019-01-24T17:15:00.950Z,100048.02
2019-01-24T17:17:47.385Z,100045.09
2019-01-24T17:21:05.033Z,100045.22
2019-01-24T17:24:08.105Z,100042.41
2019-01-24T17:27:34.008Z,100045.86
2019-01-24T17:30:24.065Z,100054.02
2019-01-24T17:33:14.705Z,100053.28
2019-01-24T17:35:52.395Z,100054.33
2019-01-24T17:38:23.869Z,100052.68
2019-01-24T17:41:03.270Z,100057.16
2019-01-24T17:43:37.527Z,100056.95
2019-01-24T17:46:08.421Z,100058.69
2019-01-24T17:48:43.810Z,100059.91
2019-01-24T17:51:15.611Z,100072.09
2019-01-24T17:53:52.855Z,100065.91
2019-01-24T17:56:24.106Z,100058.41
2019-01-24T17:58:58.967Z,100063.52
2019-01-24T18:01:27.880Z,100078.45
2019-01-24T18:04:04.240Z,100073.58
2019-01-24T18:06:50.562Z,100076.23
2019-01-24T18:09:24.496Z,100075.73
2019-01-24T18:11:57.861Z,100073.80
2019-01-24T18:14:59.114Z,100078.60
2019-01-24T18:18:02.950Z,100082.91
2019-01-24T18:24:36.725Z,100085.71
2019-01-24T18:34:43.845Z,100099.22
2019-01-24T18:38:02.446Z,100103.97
2019-01-24T18:40:53.020Z,100109.52
2019-01-24T18:47:24.541Z,100118.49
2019-01-24T18:50:12.476Z,100119.30
2019-01-24T18:53:21.180Z,100124.94
2019-01-24T18:56:05.305Z,100130.98
2019-01-24T18:59:16.507Z,100128.05
2019-01-24T19:09:33.568Z,100125.81
2019-01-24T19:12:39.925Z,100119.33
2019-01-24T19:16:17.651Z,100123.00
2019-01-24T19:18:59.631Z,100132.89
2019-01-24T19:22:32.390Z,100135.74
2019-01-24T19:24:31.353Z,100142.83
2019-01-24T19:27:53.333Z,100141.91
2019-01-24T19:30:35.245Z,100149.41
2019-01-24T19:33:47.090Z,100160.05
2019-01-24T19:36:47.854Z,100159.86
2019-01-24T19:40:31.290Z,100161.84
2019-01-24T19:43:30.736Z,100169.60
2019-01-24T19:50:58.058Z,100182.92
2019-01-24T19:53:32.941Z,100174.74
2019-01-24T19:56:18.979Z,100178.96
2019-01-24T19:59:12.632Z,100172.64
2019-01-24T20:04:21.590Z,100181.89
2019-01-24T20:05:36.975Z,100181.19
2019-01-24T20:08:29.656Z,100183.65
2019-01-24T20:11:04.208Z,100177.98
2019-01-24T20:13:47.078Z,100181.05
2019-01-24T20:16:33.845Z,100191.47
2019-01-24T20:19:41.981Z,100193.00
2019-01-24T20:23:14.005Z,100188.17
2019-01-24T20:30:12.992Z,100198.03
2019-01-24T20:33:15.384Z,100194.66
2019-01-24T20:36:15.322Z,100192.75
2019-01-24T20:39:44.175Z,100193.83
2019-01-24T20:46:33.199Z,100195.08
2019-01-24T20:49:45.936Z,100191.72
2019-01-24T20:52:21.110Z,100189.17
2019-01-24T20:55:33.165Z,100190.88
2019-01-24T20:58:31.904Z,100198.53
2019-01-24T21:01:59.479Z,100190.83
2019-01-24T21:05:10.328Z,100184.20
2019-01-24T21:08:14.663Z,100188.05
2019-01-24T21:14:53.243Z,100184.09
2019-01-24T21:17:57.736Z,100174.48
2019-01-24T21:20:48.209Z,100185.87
2019-01-24T21:23:16.001Z,100185.83
2019-01-24T21:25:43.882Z,100184.59
2019-01-24T21:28:11.719Z,100189.91
2019-01-24T21:30:39.671Z,100192.91
2019-01-24T21:33:07.967Z,100189.87
2019-01-24T21:35:35.946Z,100183.33
2019-01-24T21:38:05.411Z,100193.67
2019-01-24T21:40:33.242Z,100194.28
2019-01-24T21:43:01.027Z,100191.31
2019-01-24T21:45:31.056Z,100186.23
2019-01-24T21:48:05.183Z,100188.52
2019-01-24T21:50:33.036Z,100199.52
2019-01-24T21:53:00.552Z,100199.64
2019-01-24T21:55:28.232Z,100200.80
2019-01-24T21:57:55.757Z,100197.98
2019-01-24T22:00:24.691Z,100203.31
2019-01-24T22:02:52.311Z,100204.10
2019-01-24T22:05:20.346Z,100208.99
2019-01-24T22:07:48.017Z,100209.44
2019-01-24T22:10:18.062Z,100206.37
2019-01-24T22:12:45.953Z,100209.08
2019-01-24T22:15:15.466Z,100208.77
2019-01-24T22:18:11.676Z,100205.19
2019-01-24T22:20:39.206Z,100198.55
2019-01-24T22:23:06.951Z,100199.22
2019-01-24T22:25:35.261Z,100203.48
2019-01-24T22:28:03.328Z,100204.72
2019-01-24T22:30:36.571Z,100205.45
2019-01-24T22:33:04.531Z,100209.25
2019-01-24T22:35:47.666Z,100208.39
2019-01-24T22:38:15.172Z,100208.70
2019-01-24T22:40:42.661Z,100207.13
2019-01-24T22:43:10.331Z,100212.61
2019-01-24T22:45:37.877Z,100210.16
2019-01-24T22:48:06.234Z,100212.11
2019-01-24T22:50:33.801Z,100209.31
2019-01-24T22:53:07.991Z,100218.44
2019-01-24T22:55:35.562Z,100210.47
2019-01-24T22:58:03.191Z,100215.65
2019-01-24T23:01:11.107Z,100212.32
2019-01-24T23:03:46.701Z,100216.81
2019-01-24T23:06:23.705Z,100220.34
2019-01-24T23:08:51.301Z,100216.31
2019-01-24T23:11:18.856Z,100222.63
2019-01-24T23:13:46.604Z,100220.39
2019-01-24T23:16:14.228Z,100214.73
2019-01-24T23:18:41.722Z,100216.54
2019-01-24T23:21:09.291Z,100225.76
2019-01-24T23:23:36.876Z,100226.03
2019-01-24T23:26:04.926Z,100227.69
2019-01-24T23:29:28.662Z,100232.70
2019-01-24T23:31:56.242Z,100235.62
2019-01-24T23:34:25.857Z,100232.68
2019-01-24T23:36:53.502Z,100230.59
2019-01-24T23:39:21.037Z,100227.88
2019-01-24T23:41:53.881Z,100237.67
2019-01-24T23:44:24.172Z,100245.90
2019-01-24T23:46:54.832Z,100239.16
2019-01-24T23:49:22.326Z,100244.16
2019-01-24T23:51:49.892Z,100237.14
2019-01-24T23:54:17.631Z,100240.52
2019-01-24T23:56:45.145Z,100244.02
2019-01-24T23:59:12.684Z,100241.08
